KBNA/BNA METAR and TAF weather

Enter ICAO airport designator
Station Type Date Time Source
KBNA METAR 2019/10/18 10:53 UTC NOAA

KBNA 181053Z 00000KT 10SM CLR 05/03 A3005 RMK AO2 SLP174 T00500028


Station Type Date Time Source
KBNA Decoded METAR 2019/10/18 10:53 UTC NOAA

NASHVILLE INTERNATIONAL AIRPORT, TN, United States (KBNA) 36-07N 086-41W 210M
Oct 18, 2019 - 06:53 AM EDT / 2019.10.18 1053 UTC
Wind: Calm:0
Visibility: 10 mile(s):0
Sky conditions: clear
Temperature: 41.0 F (5.0 C)
Dew Point: 37.0 F (2.8 C)
Relative Humidity: 85%
Pressure (altimeter): 30.05 in. Hg (1017 hPa)
ob: KBNA 181053Z 00000KT 10SM CLR 05/03 A3005 RMK AO2 SLP174 T00500028
cycle: 11

Station Type Date Time Source
KBNA TAF 2019/10/18 06:22 UTC NOAA

TAF KBNA 180520Z 1806/1906 36005KT P6SM SKC
FM181500 09008KT P6SM FEW250

Example: see airport list